createdAt,value
2017-06-11T00:00:07.149Z,16.60
2017-06-11T00:02:35.330Z,16.50
2017-06-11T00:05:03.487Z,16.40
2017-06-11T00:07:31.612Z,16.30
2017-06-11T00:09:59.733Z,16.20
2017-06-11T00:12:27.839Z,16.10
2017-06-11T00:14:55.950Z,16.00
2017-06-11T00:17:24.078Z,15.90
2017-06-11T00:19:52.220Z,15.80
2017-06-11T00:22:20.367Z,15.80
2017-06-11T00:24:48.455Z,15.80
2017-06-11T00:27:16.590Z,15.80
2017-06-11T00:29:44.713Z,15.80
2017-06-11T00:32:12.824Z,15.70
2017-06-11T00:34:41.746Z,15.70
2017-06-11T00:37:10.033Z,15.70
2017-06-11T00:39:38.175Z,15.90
2017-06-11T00:42:06.313Z,15.90
2017-06-11T00:44:34.425Z,16.00
2017-06-11T00:47:02.525Z,15.90
2017-06-11T00:49:30.663Z,15.90
2017-06-11T00:51:59.631Z,15.90
2017-06-11T00:54:27.750Z,15.80
2017-06-11T00:56:55.873Z,15.80
2017-06-11T00:59:29.402Z,15.80
2017-06-11T01:01:57.527Z,15.70
2017-06-11T01:04:25.637Z,15.70
2017-06-11T01:06:53.720Z,15.60
2017-06-11T01:09:21.834Z,15.50
2017-06-11T01:11:50.042Z,15.50
2017-06-11T01:14:18.150Z,15.50
2017-06-11T01:16:46.245Z,15.40
2017-06-11T01:19:14.382Z,15.30
2017-06-11T01:21:42.538Z,15.20
2017-06-11T01:24:10.672Z,15.20
2017-06-11T01:26:38.791Z,15.10
2017-06-11T01:29:06.915Z,15.00
2017-06-11T01:31:35.027Z,15.00
2017-06-11T01:34:03.164Z,15.00
2017-06-11T01:36:31.278Z,14.90
2017-06-11T01:38:59.429Z,14.90
2017-06-11T01:41:27.515Z,14.80
2017-06-11T01:43:55.637Z,14.80
2017-06-11T01:46:23.759Z,14.80
2017-06-11T01:48:51.876Z,14.80
2017-06-11T01:51:20.000Z,14.80
2017-06-11T01:53:48.128Z,14.80
2017-06-11T01:56:16.242Z,14.80
2017-06-11T01:58:44.359Z,14.80
2017-06-11T02:01:12.478Z,14.70
2017-06-11T02:03:40.578Z,14.70
2017-06-11T02:06:08.703Z,14.70
2017-06-11T02:08:36.807Z,14.60
2017-06-11T02:11:04.931Z,14.60
2017-06-11T02:13:33.043Z,14.60
2017-06-11T02:16:01.156Z,14.60
2017-06-11T02:18:29.291Z,14.50
2017-06-11T02:20:57.431Z,14.50
2017-06-11T02:23:25.544Z,14.40
2017-06-11T02:25:53.643Z,14.40
2017-06-11T02:28:21.786Z,14.30
2017-06-11T02:30:49.909Z,14.30
2017-06-11T02:33:18.030Z,14.30
2017-06-11T02:35:46.155Z,14.30
2017-06-11T02:38:14.275Z,14.20
2017-06-11T02:40:42.435Z,14.20
2017-06-11T02:43:12.474Z,14.20
2017-06-11T02:45:40.667Z,14.20
2017-06-11T02:48:08.771Z,14.20
2017-06-11T02:50:36.886Z,14.20
2017-06-11T02:53:04.984Z,14.10
2017-06-11T02:55:33.133Z,14.10
2017-06-11T02:58:01.229Z,14.10
2017-06-11T03:00:29.353Z,14.10
2017-06-11T03:02:57.462Z,14.10
2017-06-11T03:05:25.586Z,14.10
2017-06-11T03:07:53.691Z,14.20
2017-06-11T03:10:21.795Z,14.20
2017-06-11T03:12:49.909Z,14.20
2017-06-11T03:15:18.010Z,14.20
2017-06-11T03:17:46.151Z,14.20
2017-06-11T03:20:14.236Z,14.30
2017-06-11T03:22:42.330Z,14.30
2017-06-11T03:25:10.459Z,14.40
2017-06-11T03:27:38.575Z,14.40
2017-06-11T03:30:06.684Z,14.40
2017-06-11T03:32:34.844Z,14.40
2017-06-11T03:35:02.953Z,14.50
2017-06-11T03:37:31.073Z,14.50
2017-06-11T03:39:59.175Z,14.60
2017-06-11T03:42:27.290Z,14.80
2017-06-11T03:44:55.414Z,15.10
2017-06-11T03:47:25.491Z,15.40
2017-06-11T03:49:58.972Z,15.80
2017-06-11T03:52:28.067Z,16.10
2017-06-11T03:54:56.270Z,16.40
2017-06-11T03:57:24.371Z,16.70
2017-06-11T03:59:52.503Z,17.00
2017-06-11T04:02:20.621Z,17.30
2017-06-11T04:04:49.691Z,17.70
2017-06-11T04:07:17.804Z,18.00
2017-06-11T04:09:45.911Z,18.40
2017-06-11T04:12:21.387Z,18.80
2017-06-11T04:17:56.391Z,19.40
2017-06-11T04:20:24.492Z,19.80
2017-06-11T04:22:52.614Z,20.30
2017-06-11T04:25:20.724Z,20.70
2017-06-11T04:27:48.830Z,21.20
2017-06-11T04:30:16.945Z,21.70
2017-06-11T04:32:45.050Z,22.20
2017-06-11T04:35:13.695Z,22.70
2017-06-11T04:37:41.818Z,23.20
2017-06-11T04:40:13.861Z,23.70
2017-06-11T04:42:41.951Z,24.20
2017-06-11T04:45:10.065Z,24.50
2017-06-11T04:47:38.167Z,24.40
2017-06-11T04:50:07.179Z,24.50
2017-06-11T04:52:35.315Z,24.70
2017-06-11T04:55:03.419Z,25.00
2017-06-11T04:57:36.401Z,25.30
2017-06-11T05:00:04.529Z,25.60
2017-06-11T05:02:32.684Z,25.80
2017-06-11T05:05:00.779Z,26.00
2017-06-11T05:07:52.703Z,26.10
2017-06-11T05:10:27.929Z,26.20
2017-06-11T05:12:56.053Z,26.40
2017-06-11T05:15:24.147Z,26.50
2017-06-11T05:17:52.248Z,25.80
2017-06-11T05:20:20.363Z,24.40
2017-06-11T05:22:48.462Z,23.20
2017-06-11T05:25:16.602Z,22.40
2017-06-11T05:27:45.553Z,21.80
2017-06-11T05:30:13.765Z,21.40
2017-06-11T05:32:42.634Z,21.10
2017-06-11T05:35:32.456Z,20.70
2017-06-11T05:38:05.858Z,20.40
2017-06-11T05:40:33.982Z,20.20
2017-06-11T05:43:08.138Z,20.00
2017-06-11T05:45:36.283Z,19.80
2017-06-11T05:48:04.374Z,19.70
2017-06-11T05:50:46.687Z,19.60
2017-06-11T05:53:14.825Z,19.50
2017-06-11T05:55:42.902Z,19.40
2017-06-11T05:58:15.898Z,19.40
2017-06-11T06:00:43.978Z,19.30
2017-06-11T06:03:12.095Z,19.30
2017-06-11T06:05:42.135Z,19.30
2017-06-11T06:08:20.478Z,19.30
2017-06-11T06:10:49.671Z,19.40
2017-06-11T06:13:17.742Z,19.40
2017-06-11T06:15:46.050Z,19.50
2017-06-11T06:18:14.144Z,19.60
2017-06-11T06:20:42.377Z,19.60
2017-06-11T06:23:11.394Z,19.50
2017-06-11T06:25:39.532Z,19.50
2017-06-11T06:28:08.535Z,19.50
2017-06-11T06:30:36.663Z,19.50
2017-06-11T06:33:05.186Z,19.50
2017-06-11T06:35:33.296Z,19.60
2017-06-11T06:38:01.405Z,19.60
2017-06-11T06:40:29.516Z,19.70
2017-06-11T06:43:04.456Z,19.70
2017-06-11T06:45:32.616Z,19.80
2017-06-11T06:48:01.722Z,20.00
2017-06-11T06:50:41.388Z,20.10
2017-06-11T06:53:14.301Z,20.20
2017-06-11T06:55:50.490Z,20.20
2017-06-11T06:58:22.498Z,20.30
2017-06-11T07:00:50.599Z,20.40
2017-06-11T07:03:18.689Z,20.50
2017-06-11T07:05:47.776Z,20.60
2017-06-11T07:08:16.471Z,20.60
2017-06-11T07:10:44.595Z,20.70
2017-06-11T07:13:12.699Z,20.80
2017-06-11T07:15:42.783Z,21.00
2017-06-11T07:18:11.515Z,21.10
2017-06-11T07:20:41.530Z,21.20
2017-06-11T07:23:11.589Z,21.40
2017-06-11T07:25:39.703Z,21.50
2017-06-11T07:28:07.839Z,21.60
2017-06-11T07:30:56.375Z,21.70
2017-06-11T07:33:24.484Z,21.70
2017-06-11T07:35:56.538Z,21.80
2017-06-11T07:38:24.674Z,21.90
2017-06-11T07:40:52.774Z,21.90
2017-06-11T07:43:20.888Z,21.90
2017-06-11T07:45:49.029Z,21.90
2017-06-11T07:48:18.138Z,22.00
2017-06-11T07:50:46.842Z,22.10
2017-06-11T07:53:15.981Z,22.10
2017-06-11T07:55:44.106Z,22.10
2017-06-11T07:58:13.228Z,22.20
2017-06-11T08:00:41.387Z,22.30
2017-06-11T08:03:09.515Z,22.50
2017-06-11T08:05:37.635Z,22.60
2017-06-11T08:08:07.684Z,22.70
2017-06-11T08:10:35.941Z,22.90
2017-06-11T08:13:04.042Z,23.00
2017-06-11T08:15:33.246Z,23.10
2017-06-11T08:18:01.356Z,23.20
2017-06-11T08:20:29.469Z,23.20
2017-06-11T08:23:00.596Z,23.20
2017-06-11T08:25:28.824Z,23.20
2017-06-11T08:27:56.928Z,23.20
2017-06-11T08:30:25.047Z,23.20
2017-06-11T08:32:55.424Z,23.20
2017-06-11T08:35:30.732Z,23.20
2017-06-11T08:38:04.590Z,23.10
2017-06-11T08:40:47.741Z,23.10
2017-06-11T08:43:16.773Z,23.00
2017-06-11T08:45:51.173Z,23.10
2017-06-11T08:48:19.409Z,23.10
2017-06-11T08:50:47.546Z,23.10
2017-06-11T08:53:15.681Z,23.20
2017-06-11T08:55:43.769Z,23.20
2017-06-11T08:58:11.923Z,23.30
2017-06-11T09:00:48.292Z,23.30
2017-06-11T09:03:26.891Z,23.20
2017-06-11T09:05:55.888Z,23.20
2017-06-11T09:08:23.981Z,23.20
2017-06-11T09:10:53.012Z,23.30
2017-06-11T09:13:21.169Z,23.30
2017-06-11T09:15:49.268Z,23.40
2017-06-11T09:18:18.307Z,23.40
2017-06-11T09:20:46.423Z,23.40
2017-06-11T09:23:14.518Z,23.40
2017-06-11T09:25:42.635Z,23.30
2017-06-11T09:28:10.739Z,23.30
2017-06-11T09:30:52.151Z,23.30
2017-06-11T09:33:21.171Z,23.30
2017-06-11T09:35:52.731Z,23.40
2017-06-11T09:38:21.541Z,23.50
2017-06-11T09:40:51.219Z,23.50
2017-06-11T09:43:19.342Z,23.60
2017-06-11T09:45:51.195Z,23.80
2017-06-11T09:48:20.450Z,23.80
2017-06-11T09:50:48.660Z,23.90
2017-06-11T09:53:16.788Z,23.90
2017-06-11T09:55:44.891Z,24.00
2017-06-11T09:58:13.927Z,24.00
2017-06-11T10:00:51.664Z,24.10
2017-06-11T10:03:21.714Z,24.20
2017-06-11T10:05:49.833Z,24.20
2017-06-11T10:08:17.915Z,24.40
2017-06-11T10:10:46.028Z,24.40
2017-06-11T10:13:14.129Z,24.50
2017-06-11T10:15:42.995Z,24.60
2017-06-11T10:18:11.103Z,24.70
2017-06-11T10:20:39.239Z,24.80
2017-06-11T10:23:13.389Z,24.80
2017-06-11T10:25:41.526Z,24.90
2017-06-11T10:28:09.645Z,25.00
2017-06-11T10:30:37.803Z,25.10
2017-06-11T10:33:05.944Z,25.10
2017-06-11T10:35:35.023Z,25.10
2017-06-11T10:38:03.166Z,25.10
2017-06-11T10:40:31.279Z,25.20
2017-06-11T10:43:00.074Z,25.40
2017-06-11T10:45:28.203Z,25.50
2017-06-11T10:47:57.280Z,25.60
2017-06-11T10:50:28.458Z,25.70
2017-06-11T10:52:56.609Z,25.70
2017-06-11T10:55:27.168Z,25.80
2017-06-11T10:57:56.229Z,25.90
2017-06-11T11:00:24.351Z,26.00
2017-06-11T11:02:52.451Z,26.10
2017-06-11T11:05:20.554Z,26.20
2017-06-11T11:07:49.541Z,26.20
2017-06-11T11:10:17.646Z,26.20
2017-06-11T11:12:51.695Z,26.30
2017-06-11T11:15:26.458Z,26.30
2017-06-11T11:17:54.587Z,26.20
2017-06-11T11:20:22.702Z,26.20
2017-06-11T11:23:01.494Z,26.20
2017-06-11T11:25:35.071Z,26.20
2017-06-11T11:28:04.152Z,26.10
2017-06-11T11:30:32.285Z,26.20
2017-06-11T11:33:00.489Z,26.50
2017-06-11T11:35:34.464Z,26.60
2017-06-11T11:38:02.554Z,26.70
2017-06-11T11:40:30.748Z,26.50
2017-06-11T11:42:58.854Z,26.50
2017-06-11T11:45:27.386Z,26.60
2017-06-11T11:47:55.548Z,26.70
2017-06-11T11:50:23.650Z,26.80
2017-06-11T11:52:55.366Z,27.20
2017-06-11T11:55:31.406Z,27.60
2017-06-11T11:57:59.630Z,27.90
2017-06-11T12:00:27.705Z,27.90
2017-06-11T12:02:55.815Z,28.20
2017-06-11T12:05:23.922Z,28.40
2017-06-11T12:07:52.963Z,28.40
2017-06-11T12:10:21.077Z,28.60
2017-06-11T12:12:49.205Z,28.70
2017-06-11T12:15:17.338Z,28.50
2017-06-11T12:17:45.510Z,28.70
2017-06-11T12:20:13.666Z,29.00
2017-06-11T12:22:41.797Z,29.00
2017-06-11T12:25:10.232Z,28.90
2017-06-11T12:27:38.359Z,29.20
2017-06-11T12:30:08.513Z,29.50
2017-06-11T12:32:36.703Z,29.60
2017-06-11T12:35:12.286Z,29.40
2017-06-11T12:37:40.482Z,29.10
2017-06-11T12:40:08.629Z,28.90
2017-06-11T12:42:37.713Z,29.00
2017-06-11T12:45:05.847Z,29.20
2017-06-11T12:47:34.041Z,29.20
2017-06-11T12:50:02.228Z,29.20
2017-06-11T12:52:30.338Z,29.30
2017-06-11T12:54:58.462Z,29.50
2017-06-11T12:57:33.853Z,29.60
2017-06-11T13:00:02.911Z,29.70
2017-06-11T13:02:32.039Z,29.50
2017-06-11T13:05:00.219Z,29.60
2017-06-11T13:07:28.517Z,29.70
2017-06-11T13:09:56.609Z,29.80
2017-06-11T13:12:24.714Z,29.80
2017-06-11T13:14:52.830Z,30.00
2017-06-11T13:17:27.935Z,30.20
2017-06-11T13:19:56.147Z,29.90
2017-06-11T13:22:24.378Z,29.80
2017-06-11T13:24:53.506Z,29.40
2017-06-11T13:27:22.431Z,29.30
2017-06-11T13:29:50.531Z,29.10
2017-06-11T13:32:18.634Z,29.10
2017-06-11T13:34:51.514Z,29.20
2017-06-11T13:37:20.934Z,29.30
2017-06-11T13:39:49.064Z,29.40
2017-06-11T13:42:17.775Z,29.50
2017-06-11T13:44:45.911Z,29.50
2017-06-11T13:47:14.026Z,29.40
2017-06-11T13:49:45.229Z,29.60
2017-06-11T13:52:16.866Z,29.80
2017-06-11T13:54:48.490Z,29.80
2017-06-11T13:57:26.646Z,29.60
2017-06-11T13:59:56.835Z,29.40
2017-06-11T14:02:28.190Z,29.40
2017-06-11T14:04:56.339Z,29.50
2017-06-11T14:07:24.430Z,29.50
2017-06-11T14:09:52.588Z,29.50
2017-06-11T14:12:20.702Z,29.40
2017-06-11T14:14:48.842Z,29.60
2017-06-11T14:17:16.994Z,29.70
2017-06-11T14:19:45.140Z,30.00
2017-06-11T14:22:13.284Z,30.30
2017-06-11T14:24:43.365Z,30.40
2017-06-11T14:27:12.003Z,30.40
2017-06-11T14:29:40.239Z,30.30
2017-06-11T14:32:08.366Z,30.20
2017-06-11T14:34:36.498Z,30.10
2017-06-11T14:37:04.670Z,30.00
2017-06-11T14:39:32.790Z,29.90
2017-06-11T14:42:12.514Z,29.90
2017-06-11T14:44:40.635Z,29.70
2017-06-11T14:47:08.721Z,29.80
2017-06-11T14:49:36.850Z,29.80
2017-06-11T14:52:04.940Z,29.80
2017-06-11T14:57:32.961Z,29.90
2017-06-11T15:00:01.072Z,30.00
2017-06-11T15:02:29.200Z,29.90
2017-06-11T15:04:57.367Z,30.00
2017-06-11T15:07:27.431Z,30.10
2017-06-11T15:09:57.475Z,30.10
2017-06-11T15:12:31.427Z,30.00
2017-06-11T15:15:03.551Z,30.10
2017-06-11T15:17:31.678Z,30.10
2017-06-11T15:20:00.936Z,30.10
2017-06-11T15:22:29.058Z,30.20
2017-06-11T15:24:57.216Z,29.80
2017-06-11T15:27:25.656Z,29.30
2017-06-11T15:29:54.699Z,29.10
2017-06-11T15:32:22.826Z,28.70
2017-06-11T15:34:58.798Z,28.40
2017-06-11T15:37:27.440Z,28.30
2017-06-11T15:40:02.187Z,27.80
2017-06-11T15:42:32.174Z,27.50
2017-06-11T15:45:00.296Z,27.40
2017-06-11T15:50:34.270Z,27.10
2017-06-11T15:53:07.614Z,26.70
2017-06-11T15:55:36.736Z,26.50
2017-06-11T16:01:11.991Z,26.30
2017-06-11T16:03:40.200Z,26.30
2017-06-11T16:06:08.302Z,26.20
2017-06-11T16:08:36.430Z,26.30
2017-06-11T16:11:05.542Z,26.30
2017-06-11T16:13:33.651Z,26.40
2017-06-11T16:16:01.766Z,26.60
2017-06-11T16:18:29.866Z,26.50
2017-06-11T16:20:58.118Z,26.60
2017-06-11T16:23:26.247Z,26.70
2017-06-11T16:25:55.440Z,26.90
2017-06-11T16:28:23.520Z,27.10
2017-06-11T16:30:51.614Z,27.40
2017-06-11T16:33:23.682Z,27.70
2017-06-11T16:35:52.379Z,27.90
2017-06-11T16:38:20.513Z,28.00
2017-06-11T16:40:48.710Z,28.00
2017-06-11T16:43:17.631Z,28.00
2017-06-11T16:45:53.506Z,28.00
2017-06-11T16:48:22.665Z,28.00
2017-06-11T16:50:57.562Z,27.80
2017-06-11T16:53:37.217Z,27.60
2017-06-11T16:56:22.929Z,27.40
2017-06-11T17:01:49.113Z,27.00
2017-06-11T17:04:17.318Z,26.70
2017-06-11T17:06:45.441Z,26.50
2017-06-11T17:09:18.736Z,26.10
2017-06-11T17:11:48.830Z,25.70
2017-06-11T17:14:16.967Z,25.40
2017-06-11T17:16:45.057Z,25.20
2017-06-11T17:19:13.164Z,24.90
2017-06-11T17:21:42.305Z,24.50
2017-06-11T17:24:12.365Z,24.10
2017-06-11T17:26:46.153Z,23.70
2017-06-11T17:29:14.268Z,23.40
2017-06-11T17:31:53.121Z,22.70
2017-06-11T17:34:25.053Z,21.50
2017-06-11T17:36:53.193Z,20.90
2017-06-11T17:39:21.280Z,20.50
2017-06-11T17:41:49.512Z,20.40
2017-06-11T17:44:21.410Z,20.30
2017-06-11T17:46:49.751Z,20.20
2017-06-11T17:49:22.569Z,20.20
2017-06-11T17:51:50.712Z,20.30
2017-06-11T17:54:33.905Z,20.30
2017-06-11T17:57:02.042Z,20.40
2017-06-11T17:59:35.714Z,20.50
2017-06-11T18:02:05.859Z,20.50
2017-06-11T18:04:39.859Z,20.50
2017-06-11T18:07:09.579Z,20.60
2017-06-11T18:09:42.986Z,20.50
2017-06-11T18:12:11.138Z,20.40
2017-06-11T18:14:39.287Z,20.30
2017-06-11T18:17:07.389Z,20.20
2017-06-11T18:19:39.859Z,20.20
2017-06-11T18:22:07.974Z,20.20
2017-06-11T18:24:36.104Z,20.20
2017-06-11T18:27:06.245Z,20.10
2017-06-11T18:29:34.449Z,20.10
2017-06-11T18:32:04.512Z,20.10
2017-06-11T18:34:33.671Z,20.10
2017-06-11T18:37:03.913Z,20.00
2017-06-11T18:39:32.001Z,19.90
2017-06-11T18:42:00.111Z,19.90
2017-06-11T18:44:30.597Z,19.80
2017-06-11T18:46:58.675Z,19.80
2017-06-11T18:49:26.891Z,19.80
2017-06-11T18:51:55.018Z,19.80
2017-06-11T18:54:24.076Z,19.80
2017-06-11T18:56:54.143Z,19.80
2017-06-11T18:59:22.361Z,19.80
2017-06-11T19:01:50.718Z,19.80
2017-06-11T19:04:18.842Z,19.80
2017-06-11T19:06:47.429Z,19.80
2017-06-11T19:09:15.571Z,19.90
2017-06-11T19:11:45.743Z,19.90
2017-06-11T19:14:21.955Z,19.90
2017-06-11T19:16:50.111Z,19.90
2017-06-11T19:19:18.264Z,19.90
2017-06-11T19:21:46.374Z,19.90
2017-06-11T19:24:14.570Z,19.90
2017-06-11T19:26:42.996Z,19.90
2017-06-11T19:32:20.633Z,19.70
2017-06-11T19:34:50.993Z,19.80
2017-06-11T19:37:19.137Z,19.70
2017-06-11T19:39:47.273Z,19.80
2017-06-11T19:42:18.016Z,19.70
2017-06-11T19:44:49.957Z,19.70
2017-06-11T19:47:26.286Z,19.70
2017-06-11T19:49:54.418Z,19.70
2017-06-11T19:52:22.614Z,19.60
2017-06-11T19:54:50.769Z,19.60
2017-06-11T19:57:38.180Z,19.50
2017-06-11T20:00:06.291Z,19.50
2017-06-11T20:02:41.150Z,19.40
2017-06-11T20:05:09.266Z,19.40
2017-06-11T20:07:37.439Z,19.30
2017-06-11T20:10:09.457Z,19.20
2017-06-11T20:12:37.587Z,19.20
2017-06-11T20:15:05.764Z,19.20
2017-06-11T20:17:33.855Z,19.10
2017-06-11T20:20:13.904Z,19.10
2017-06-11T20:22:47.492Z,19.10
2017-06-11T20:25:15.633Z,19.10
2017-06-11T20:27:43.807Z,19.00
2017-06-11T20:30:12.918Z,18.90
2017-06-11T20:32:41.157Z,18.90
2017-06-11T20:35:09.310Z,18.80
2017-06-11T20:40:33.658Z,18.70
2017-06-11T20:43:05.806Z,18.70
2017-06-11T20:45:41.286Z,18.60
2017-06-11T20:48:10.012Z,18.70
2017-06-11T20:50:40.354Z,18.70
2017-06-11T20:59:05.637Z,18.90
2017-06-11T21:01:33.801Z,18.90
2017-06-11T21:04:01.901Z,19.00
2017-06-11T21:06:30.458Z,18.90
2017-06-11T21:09:06.005Z,18.90
2017-06-11T21:11:34.125Z,18.90
2017-06-11T21:14:02.226Z,18.90
2017-06-11T21:16:30.337Z,18.80
2017-06-11T21:18:59.042Z,18.70
2017-06-11T21:21:27.154Z,18.70
2017-06-11T21:23:55.729Z,18.60
2017-06-11T21:26:23.834Z,18.70
2017-06-11T21:28:52.494Z,18.70
2017-06-11T21:31:20.602Z,18.60
2017-06-11T21:33:48.767Z,18.50
2017-06-11T21:36:16.914Z,18.40
2017-06-11T21:38:45.021Z,18.30
2017-06-11T21:41:13.124Z,18.30
2017-06-11T21:43:41.226Z,18.30
2017-06-11T21:46:09.329Z,18.30
2017-06-11T21:48:37.466Z,18.20
2017-06-11T21:51:05.566Z,18.20
2017-06-11T21:53:33.699Z,18.20
2017-06-11T21:56:01.972Z,18.20
2017-06-11T21:58:30.055Z,18.20
2017-06-11T22:01:01.141Z,18.10
2017-06-11T22:03:31.064Z,18.10
2017-06-11T22:05:59.130Z,18.10
2017-06-11T22:08:27.282Z,18.30
2017-06-11T22:10:55.375Z,18.50
2017-06-11T22:13:23.481Z,18.60
2017-06-11T22:15:57.846Z,18.70
2017-06-11T22:18:26.777Z,18.70
2017-06-11T22:20:57.442Z,18.70
2017-06-11T22:23:25.555Z,18.80
2017-06-11T22:25:53.646Z,18.90
2017-06-11T22:28:21.813Z,19.00
2017-06-11T22:31:02.266Z,19.00
2017-06-11T22:36:43.894Z,18.80
2017-06-11T22:39:27.591Z,18.70
2017-06-11T22:41:56.776Z,18.60
2017-06-11T22:44:24.882Z,18.50
2017-06-11T22:46:52.978Z,18.40
2017-06-11T22:49:21.086Z,18.30
2017-06-11T22:51:49.196Z,18.30
2017-06-11T22:54:17.329Z,18.30
2017-06-11T22:56:45.430Z,18.20
2017-06-11T22:59:13.568Z,18.20
2017-06-11T23:01:41.684Z,18.10
2017-06-11T23:04:20.593Z,18.10
2017-06-11T23:06:53.129Z,18.10
2017-06-11T23:09:22.145Z,18.00
2017-06-11T23:11:50.250Z,18.00
2017-06-11T23:14:18.350Z,18.10
2017-06-11T23:16:46.467Z,18.20
2017-06-11T23:19:14.570Z,18.20
2017-06-11T23:21:42.678Z,18.20
2017-06-11T23:24:10.777Z,18.20
2017-06-11T23:26:38.865Z,18.20
2017-06-11T23:29:06.978Z,18.20
2017-06-11T23:31:35.082Z,18.30
2017-06-11T23:34:03.234Z,18.40
2017-06-11T23:36:31.349Z,18.50
2017-06-11T23:38:59.442Z,18.60
2017-06-11T23:41:27.561Z,18.60
2017-06-11T23:43:55.671Z,18.60
2017-06-11T23:46:24.202Z,18.60
2017-06-11T23:48:52.309Z,18.60
2017-06-11T23:51:20.476Z,18.60
2017-06-11T23:53:49.111Z,18.60
2017-06-11T23:56:17.255Z,18.60
2017-06-11T23:58:45.386Z,18.60
